New Braunfels, TX (78132)

12:38 PM CST on December 19, 2014 (GMT -0600)
Oakwood Estates | Change Station
CLOSE
Current Station
Personal Weather Station
Location: New Braunfels, TX
Elevation: 758 ft
Nearby Weather Stations

Elev 758 ft 29.72 °N, 98.14 °W | Updated 27 seconds ago

Mostly Cloudy
Mostly Cloudy
58.4 °F
Feels Like 58.4 °F
N
5.0
Wind Variable Wind from NNW
Gusts 9.0 mph

Today
High -- | Low -- °F
--% Chance of Precip.
Yesterday
High -- | Low -- °F
Precip. -- in
7:22 AM 5:36 PM
Waning Crescent, 7% visible
Pressure 30.08 in
Visibility 10.0 miles
Clouds Scattered Clouds 1900 ft
Mostly Cloudy 5500 ft
Overcast 9000 ft
Dew Point 53 °F
Humidity 81%
Rainfall 0.07 in
Snow Depth Not available.
UV 1 out of 12
Pollen 4.60 out of 12
Air Quality Not available.
Flu Activity Not available.
SPECI KBAZ 191835Z 05012KT 10SM SCT019 BKN055 OVC090 16/11 A3008 RMK AO2 T01610106 $

More Conditions Fewer Conditions

Pressure 30.08 in
Visibility 10.0 miles
Clouds Scattered Clouds 1900 ft
Mostly Cloudy 5500 ft
Overcast 9000 ft
Dew Point 53 °F
Humidity 81%
Rainfall 0.07 in
Snow Depth Not available.
UV 1 out of 12
Pollen 4.60 out of 12
Air Quality Not available.
Flu Activity Not available.
SPECI KBAZ 191835Z 05012KT 10SM SCT019 BKN055 OVC090 16/11 A3008 RMK AO2 T01610106 $

More Conditions Fewer Conditions

10-Day Weather Forecast

Almanac

Astronomy

Dec. 19, 2014 Rise Set
Actual Time
Civil Twilight
Nautical Twilight
Astronomical Twilight
Moon
Length of Visible Light
Length of Day
Tomorrow will be .
, % of the Moon is Illuminated

Today's Extremes

State Highs State Lows

Community

WunderPhotos

Upload Photos

1,779,020 photos uploaded!

WunderBlogs® & News

Nearby

Air Quality

  Air Quality AQ Index Pollutant
Not available.

Snow Depth

Station Depth Elevation

Earthquake Activity

City Distance Mag. Time & Date
Minimum magnitude displayed is 2.5.

Coastal Water Temperatures

Place Temperature

Nearby Weather Stations